RJBE(METAR)
01/26 13:00
METAR RJBE 260400Z 14004KT 9999 FEW010 BKN/// 09/03 Q1023 RMK 1CU010
A3023=
戻る
トップページへ戻る
IMOC Co,.Ltd.